Altoona, Kansas
Current Conditions -  °F | °C
As of 4:52 PM on Thursday 27 Nov 2014 (Local Time) from KCNU Reporting Station
Clear Clear  
Wind Chill: 31°   Ceiling: Unl
Heat Index: 37°   Visibility: 10mi
Dew Point: 22°   Wind: 8mph
Humidity: 54%   Direction: 150°SSE
Pressure: 30.37"   Gusts: NA
Location:  37.52°N, 95.66°W
Report Text: KCNU 272252Z AUTO 15007KT 10SM CLR 03/M06 A3037 RMK AO2 SLP294 T00281056
Loading
Personal Weather Stations






























Interactive Weather Map New forecast layout! Learn more

10-Day Weather Forecast

Advertisements
Track Severe Weather on mobile